Time;durP1;ratioP1;P1;durP2;ratioP2;P2;SDS_P1;SDS_P2;PMS_P1;PMS_P2;Temp;Humidity;BMP_temperature;BMP_pressure;BME280_temperature;BME280_humidity;BME280_pressure;Samples;Min_cycle;Max_cycle;Signal;HPM_P1;HPM_P2
2022/11/25 00:01:10;;;;;;;4.03;2.43;;;1.90;99.90;;;;;;6267761;23;20437;-80
2022/11/25 00:03:37;;;;;;;4.33;2.93;;;1.80;99.90;;;;;;6260168;23;20483;-81
2022/11/25 00:06:13;;;;;;;3.30;2.90;;;1.80;99.90;;;;;;6261652;23;20425;-80
2022/11/25 00:08:41;;;;;;;5.13;2.83;;;1.80;99.90;;;;;;6267991;23;20412;-80
2022/11/25 00:11:09;;;;;;;4.00;2.77;;;1.80;99.90;;;;;;6270632;22;20592;-80
2022/11/25 00:13:37;;;;;;;4.73;2.80;;;1.70;99.90;;;;;;6270386;23;20465;-79
2022/11/25 00:16:05;;;;;;;5.30;2.50;;;1.80;99.90;;;;;;6268132;23;20410;-80
2022/11/25 00:18:32;;;;;;;3.30;2.23;;;1.70;99.90;;;;;;6258942;23;20651;-80
2022/11/25 00:21:06;;;;;;;4.73;3.40;;;1.70;99.90;;;;;;6256189;23;20436;-81
2022/11/25 00:23:33;;;;;;;4.60;2.63;;;1.80;99.90;;;;;;6255911;23;20930;-81
2022/11/25 00:26:07;;;;;;;5.20;2.90;;;1.70;99.90;;;;;;6260068;23;20470;-81
2022/11/25 00:28:35;;;;;;;3.17;2.07;;;1.70;99.90;;;;;;6254753;23;20472;-81
2022/11/25 00:31:06;;;;;;;3.70;2.10;;;1.60;99.90;;;;;;6260712;23;20953;-80
2022/11/25 00:33:33;;;;;;;2.57;2.33;;;1.80;99.90;;;;;;6266766;23;20449;-80
2022/11/25 00:36:01;;;;;;;3.90;1.90;;;1.80;99.90;;;;;;6260966;23;20416;-81
2022/11/25 00:38:28;;;;;;;3.07;2.40;;;1.70;99.90;;;;;;6262842;23;20414;-81
2022/11/25 00:44:34;;;;;;;2.67;2.47;;;1.50;99.90;;;;;;6268999;23;20394;-82
2022/11/25 00:46:29;;;;;;;2.10;1.90;;;1.50;99.90;;;;;;6266686;23;20444;-81
2022/11/25 00:48:56;;;;;;;3.07;2.17;;;1.40;99.90;;;;;;6267312;23;20437;-79
2022/11/25 00:51:22;;;;;;;4.83;2.70;;;1.40;99.90;;;;;;6255139;23;20441;-79
2022/11/25 00:53:49;;;;;;;3.13;2.80;;;1.40;99.90;;;;;;6253695;23;20441;-78
2022/11/25 00:56:22;;;;;;;2.43;2.20;;;1.30;99.90;;;;;;6253216;23;20815;-78
2022/11/25 00:58:52;;;;;;;2.50;2.30;;;1.30;99.90;;;;;;6256679;23;20398;-80
2022/11/25 01:01:19;;;;;;;3.60;2.13;;;1.30;99.90;;;;;;6256905;23;20397;-79
2022/11/25 01:03:57;;;;;;;2.30;2.10;;;1.40;99.90;;;;;;6252861;23;20409;-79
2022/11/25 01:06:34;;;;;;;2.73;2.27;;;1.40;99.90;;;;;;6249376;23;20425;-80
2022/11/25 01:09:03;;;;;;;4.40;2.17;;;1.40;99.90;;;;;;6250385;22;20401;-78
2022/11/25 01:11:29;;;;;;;6.93;2.43;;;1.40;99.90;;;;;;6249755;23;21269;-79
2022/11/25 01:16:38;;;;;;;3.60;2.47;;;1.40;99.90;;;;;;6245586;23;20410;-79
2022/11/25 01:19:05;;;;;;;3.23;2.23;;;1.40;99.90;;;;;;6243692;23;20499;-80
2022/11/25 01:21:34;;;;;;;5.90;2.00;;;1.60;99.90;;;;;;6243428;23;20430;-81
2022/11/25 01:24:02;;;;;;;2.10;1.67;;;1.50;99.90;;;;;;6242176;23;20414;-80
2022/11/25 01:26:39;;;;;;;2.30;2.00;;;1.50;99.90;;;;;;6241822;23;20465;-79
2022/11/25 01:29:12;;;;;;;2.07;1.87;;;1.30;99.90;;;;;;6244233;23;20484;-79
2022/11/25 01:31:39;;;;;;;3.13;2.30;;;1.40;99.90;;;;;;6249406;23;20553;-79
2022/11/25 01:34:08;;;;;;;3.07;2.17;;;1.30;99.90;;;;;;6249339;23;20994;-79
2022/11/25 01:36:40;;;;;;;3.00;2.23;;;1.30;99.90;;;;;;6250848;23;20500;-79
2022/11/25 01:39:07;;;;;;;3.07;2.30;;;1.30;99.90;;;;;;6249824;23;20465;-79
2022/11/25 01:42:04;;;;;;;1.87;1.60;;;1.30;99.90;;;;;;6250701;23;20466;-78
2022/11/25 01:44:33;;;;;;;4.07;2.33;;;1.10;99.90;;;;;;6246201;23;20477;-79
2022/11/25 01:47:10;;;;;;;4.63;2.70;;;1.40;99.90;;;;;;6251411;23;20428;-79
2022/11/25 01:49:42;;;;;;;3.37;2.63;;;1.40;99.90;;;;;;6250111;23;20408;-79
2022/11/25 01:52:13;;;;;;;4.23;1.70;;;1.40;99.90;;;;;;6247801;23;20461;-78
2022/11/25 01:54:44;;;;;;;2.00;1.70;;;1.40;99.90;;;;;;6247531;23;20938;-79
2022/11/25 01:57:15;;;;;;;2.17;2.00;;;1.30;99.90;;;;;;6245273;23;20481;-79
2022/11/25 01:59:48;;;;;;;2.90;2.10;;;1.40;99.90;;;;;;6245631;23;20457;-79
2022/11/25 02:02:16;;;;;;;2.70;1.83;;;1.40;99.90;;;;;;6247035;23;21129;-79
2022/11/25 02:04:44;;;;;;;2.67;1.80;;;1.40;99.90;;;;;;6248230;23;20842;-79
2022/11/25 02:07:14;;;;;;;2.17;1.97;;;1.30;99.90;;;;;;6245719;23;20413;-79
2022/11/25 02:10:00;;;;;;;2.20;1.50;;;1.40;99.90;;;;;;6246700;22;21010;-80
2022/11/25 02:12:53;;;;;;;3.30;2.50;;;1.40;99.90;;;;;;6247268;23;20443;-80
2022/11/25 02:15:22;;;;;;;2.23;1.90;;;1.50;99.90;;;;;;6249970;23;20942;-79
2022/11/25 02:17:49;;;;;;;4.33;2.37;;;1.60;99.90;;;;;;6248833;23;20466;-78
2022/11/25 02:20:18;;;;;;;3.00;2.00;;;1.60;99.90;;;;;;6245886;23;20402;-79
2022/11/25 02:22:53;;;;;;;2.23;2.03;;;1.60;99.90;;;;;;6244775;23;20526;-79
2022/11/25 02:25:31;;;;;;;2.13;1.93;;;1.50;99.90;;;;;;6244515;23;20382;-79
2022/11/25 02:28:02;;;;;;;4.63;1.77;;;1.50;99.90;;;;;;6244321;23;20402;-79
2022/11/25 02:30:28;;;;;;;2.50;2.30;;;1.30;99.90;;;;;;6243725;23;20441;-79
2022/11/25 02:32:57;;;;;;;2.23;1.90;;;1.50;99.90;;;;;;6244813;23;20484;-80
2022/11/25 02:35:31;;;;;;;2.27;1.97;;;1.50;99.90;;;;;;6247442;23;20545;-79
2022/11/25 02:38:03;;;;;;;3.83;1.90;;;1.50;99.90;;;;;;6248638;23;20400;-79
2022/11/25 02:40:33;;;;;;;2.40;1.90;;;1.40;99.90;;;;;;6250018;23;20480;-79
2022/11/25 02:43:00;;;;;;;2.60;1.60;;;1.40;99.90;;;;;;6252449;23;20421;-79
2022/11/25 02:45:36;;;;;;;3.00;1.93;;;1.30;99.90;;;;;;6252141;23;20476;-79
2022/11/25 02:48:04;;;;;;;3.37;1.83;;;1.30;99.90;;;;;;6252461;23;20420;-78
2022/11/25 02:50:31;;;;;;;2.43;1.70;;;1.40;99.90;;;;;;6250591;23;20428;-79
2022/11/25 02:52:57;;;;;;;2.50;1.70;;;1.30;99.90;;;;;;6247106;23;20508;-79
2022/11/25 02:55:24;;;;;;;4.03;2.07;;;1.30;99.90;;;;;;6246685;23;20438;-79
2022/11/25 02:57:52;;;;;;;1.70;1.60;;;1.40;99.90;;;;;;6244664;23;20414;-79
2022/11/25 03:00:20;;;;;;;2.67;1.80;;;1.40;99.90;;;;;;6248818;23;20417;-80
2022/11/25 03:02:47;;;;;;;2.40;1.93;;;1.30;99.90;;;;;;6249756;23;20406;-78
2022/11/25 03:05:14;;;;;;;1.97;1.77;;;1.30;99.90;;;;;;6255542;23;20395;-79
2022/11/25 03:07:41;;;;;;;2.63;1.80;;;1.40;99.90;;;;;;6255584;23;20501;-78
2022/11/25 03:10:08;;;;;;;2.40;2.20;;;1.40;99.90;;;;;;6257798;22;20505;-79
2022/11/25 03:12:34;;;;;;;3.50;1.87;;;1.40;99.90;;;;;;6256197;23;20445;-79
2022/11/25 03:15:03;;;;;;;3.50;2.20;;;1.40;99.90;;;;;;6254249;23;20442;-79
2022/11/25 03:17:30;;;;;;;2.77;2.40;;;1.50;99.90;;;;;;6255752;23;20481;-78
2022/11/25 03:19:57;;;;;;;2.50;1.93;;;1.50;99.90;;;;;;6253028;23;20489;-79
2022/11/25 03:22:24;;;;;;;2.10;1.80;;;1.50;99.90;;;;;;6254382;23;20686;-78
2022/11/25 03:24:51;;;;;;;2.13;1.93;;;1.40;99.90;;;;;;6257137;23;20473;-79
2022/11/25 03:27:17;;;;;;;2.17;1.77;;;1.40;99.90;;;;;;6258807;23;20477;-80
2022/11/25 03:29:44;;;;;;;2.50;2.30;;;1.40;99.90;;;;;;6256820;23;20479;-78
2022/11/25 03:32:12;;;;;;;2.50;1.63;;;1.40;99.90;;;;;;6251689;23;20405;-80
2022/11/25 03:34:39;;;;;;;3.17;2.00;;;1.50;99.90;;;;;;6250108;23;20958;-80
2022/11/25 03:37:06;;;;;;;2.53;1.80;;;1.50;99.90;;;;;;6248086;23;20402;-79
2022/11/25 03:39:33;;;;;;;2.23;1.67;;;1.40;99.90;;;;;;6253653;23;20472;-79
2022/11/25 03:42:00;;;;;;;4.10;1.77;;;1.30;99.90;;;;;;6253781;23;20475;-79
2022/11/25 03:44:26;;;;;;;2.77;2.00;;;1.30;99.90;;;;;;6254689;23;20433;-78
2022/11/25 03:46:53;;;;;;;2.57;1.87;;;1.30;99.90;;;;;;6258803;22;20990;-75
2022/11/25 03:49:21;;;;;;;1.93;1.70;;;1.30;99.90;;;;;;6255373;22;20990;-75
2022/11/25 03:51:48;;;;;;;2.27;1.47;;;1.30;99.90;;;;;;6243196;23;20961;-74
2022/11/25 03:54:15;;;;;;;1.67;1.57;;;1.40;99.90;;;;;;6244225;23;20460;-75
2022/11/25 03:56:42;;;;;;;2.23;1.50;;;1.40;99.90;;;;;;6242598;23;20414;-75
2022/11/25 03:59:09;;;;;;;4.67;2.20;;;1.40;99.90;;;;;;6241193;23;20501;-74
2022/11/25 04:01:36;;;;;;;1.67;1.57;;;1.50;99.90;;;;;;6242172;23;20410;-75
2022/11/25 04:04:03;;;;;;;5.27;2.30;;;1.50;99.90;;;;;;6241609;23;20453;-75
2022/11/25 04:06:31;;;;;;;1.50;1.20;;;1.50;99.90;;;;;;6241925;23;20468;-75
2022/11/25 04:08:58;;;;;;;3.10;1.70;;;1.50;99.90;;;;;;6241900;22;20421;-76
2022/11/25 04:12:45;;;;;;;1.70;1.60;;;1.50;99.90;;;;;;6241648;23;20500;-75
2022/11/25 04:14:12;;;;;;;2.00;1.80;;;1.60;99.90;;;;;;6240954;23;21286;-75
2022/11/25 04:16:39;;;;;;;2.60;2.03;;;1.60;99.90;;;;;;6241427;23;20410;-75
2022/11/25 04:19:06;;;;;;;4.83;2.00;;;1.60;99.90;;;;;;6241194;23;20490;-75
2022/11/25 04:21:34;;;;;;;5.23;2.07;;;1.70;99.90;;;;;;6241327;23;20494;-75
2022/11/25 04:24:01;;;;;;;2.63;1.90;;;1.70;99.90;;;;;;6241260;23;20967;-75
2022/11/25 04:26:32;;;;;;;2.27;1.60;;;1.70;99.90;;;;;;6241078;23;20405;-76
2022/11/25 04:28:59;;;;;;;1.87;1.57;;;1.70;99.90;;;;;;6241051;23;20394;-75
2022/11/25 04:31:26;;;;;;;2.00;1.80;;;1.70;99.90;;;;;;6240254;23;20557;-75
2022/11/25 04:33:53;;;;;;;2.87;2.07;;;1.70;99.90;;;;;;6240567;23;20489;-75
2022/11/25 04:36:19;;;;;;;2.90;1.90;;;1.70;99.90;;;;;;6240932;23;20506;-75
2022/11/25 04:38:48;;;;;;;3.17;1.97;;;1.70;99.90;;;;;;6241325;23;20505;-76
2022/11/25 04:41:15;;;;;;;2.40;2.20;;;1.70;99.90;;;;;;6241240;23;20405;-76
2022/11/25 04:43:41;;;;;;;1.60;1.50;;;1.70;99.90;;;;;;6241067;23;20406;-75
2022/11/25 04:46:11;;;;;;;2.43;1.93;;;1.70;99.90;;;;;;6240688;23;20496;-75
2022/11/25 04:48:38;;;;;;;3.20;1.90;;;1.80;99.90;;;;;;6239430;23;20943;-75
2022/11/25 04:51:05;;;;;;;3.13;2.33;;;1.80;99.90;;;;;;6239701;23;20413;-75
2022/11/25 04:53:32;;;;;;;4.80;2.20;;;1.80;99.90;;;;;;6240023;23;20416;-75
2022/11/25 04:56:00;;;;;;;4.90;2.27;;;1.70;99.90;;;;;;6240869;23;20445;-75
2022/11/25 05:01:12;;;;;;;3.30;2.40;;;1.70;99.90;;;;;;6240292;23;20515;-75
2022/11/25 05:03:39;;;;;;;2.03;1.67;;;1.70;99.90;;;;;;6240856;23;21000;-75
2022/11/25 05:06:07;;;;;;;6.93;1.93;;;1.70;99.90;;;;;;6240031;23;20511;-74
2022/11/25 05:08:34;;;;;;;2.80;1.93;;;1.80;99.90;;;;;;6240854;23;20410;-74
2022/11/25 05:11:02;;;;;;;3.27;2.40;;;1.80;99.90;;;;;;6240451;22;20437;-74
2022/11/25 05:13:29;;;;;;;2.50;1.80;;;1.90;99.90;;;;;;6240287;23;20409;-75
2022/11/25 05:15:59;;;;;;;2.80;2.27;;;1.80;99.90;;;;;;6239930;23;20450;-74
2022/11/25 05:18:26;;;;;;;2.67;2.17;;;1.90;99.90;;;;;;6240542;23;20394;-75
2022/11/25 05:20:53;;;;;;;6.50;2.77;;;1.80;99.90;;;;;;6240961;23;20896;-75
2022/11/25 05:23:20;;;;;;;3.30;2.63;;;1.70;99.90;;;;;;6244276;23;20417;-76
2022/11/25 05:25:46;;;;;;;3.87;2.50;;;1.70;99.90;;;;;;6245088;23;20489;-75
2022/11/25 05:28:15;;;;;;;4.90;3.03;;;1.70;99.90;;;;;;6244958;23;20502;-77
2022/11/25 05:30:44;;;;;;;4.50;2.87;;;1.60;99.90;;;;;;6244370;23;20781;-76
2022/11/25 05:33:10;;;;;;;5.33;2.13;;;1.60;99.90;;;;;;6243853;23;20421;-77
2022/11/25 05:35:37;;;;;;;2.30;2.00;;;1.70;99.90;;;;;;6242614;23;20442;-75
2022/11/25 05:38:04;;;;;;;4.70;2.37;;;1.80;99.90;;;;;;6242537;23;20418;-75
2022/11/25 05:40:31;;;;;;;5.43;2.27;;;1.80;99.90;;;;;;6239882;23;20410;-75
2022/11/25 05:43:00;;;;;;;5.10;2.57;;;1.90;99.90;;;;;;6239820;23;20418;-71
2022/11/25 05:45:28;;;;;;;11.90;6.53;;;1.90;99.90;;;;;;6238933;23;20981;-76
2022/11/25 05:47:55;;;;;;;1.50;1.40;;;1.90;99.90;;;;;;6240840;23;20492;-76
2022/11/25 05:50:22;;;;;;;2.90;1.73;;;1.90;99.90;;;;;;6240864;23;20548;-75
2022/11/25 06:36:50;;;;;;;3.60;2.10;;;1.80;99.90;;;;;;6260158;22;20461;-74
2022/11/25 06:39:17;;;;;;;3.83;1.83;;;2.00;99.90;;;;;;6272102;22;20445;-75
2022/11/25 06:41:44;;;;;;;2.93;2.07;;;1.80;99.90;;;;;;6271817;22;20818;-76
2022/11/25 06:44:13;;;;;;;2.57;2.37;;;1.80;99.90;;;;;;6238214;22;20451;-80
2022/11/25 07:02:14;;;;;;;5.70;2.33;;;1.70;99.90;;;;;;6198989;22;20486;-75
2022/11/25 07:04:41;;;;;;;7.30;2.33;;;1.90;99.90;;;;;;6270636;22;20543;-75
2022/11/25 07:07:09;;;;;;;2.57;2.37;;;1.90;99.90;;;;;;6270302;22;20408;-75
2022/11/25 07:09:35;;;;;;;3.70;2.33;;;1.80;99.90;;;;;;6263460;22;20428;-75
2022/11/25 07:12:04;;;;;;;3.30;2.10;;;1.90;99.90;;;;;;6240096;23;20398;-75
2022/11/25 07:14:31;;;;;;;2.17;1.97;;;1.90;99.90;;;;;;6242961;23;20406;-80
2022/11/25 07:16:58;;;;;;;3.07;2.33;;;1.90;99.90;;;;;;6240243;22;20506;-81
2022/11/25 07:22:02;;;;;;;2.23;2.03;;;2.50;99.90;;;;;;6231825;22;20457;-77
2022/11/25 07:24:29;;;;;;;5.73;3.23;;;2.50;99.90;;;;;;6284319;22;20413;-75
2022/11/25 07:26:56;;;;;;;2.50;2.30;;;2.70;99.90;;;;;;6272443;22;20505;-77
2022/11/25 07:29:23;;;;;;;4.07;2.13;;;2.80;99.90;;;;;;6277500;22;20398;-75
2022/11/25 07:31:50;;;;;;;4.53;2.30;;;3.00;99.90;;;;;;6275509;22;20978;-76
2022/11/25 07:34:19;;;;;;;3.43;1.90;;;3.00;99.90;;;;;;6273867;22;20520;-77
2022/11/25 07:36:47;;;;;;;2.47;1.80;;;3.10;99.90;;;;;;6275157;22;20452;-76
2022/11/25 07:39:17;;;;;;;2.43;2.07;;;3.10;99.90;;;;;;6274834;22;20503;-79
2022/11/25 07:41:45;;;;;;;3.13;1.70;;;3.10;99.90;;;;;;6275934;22;20408;-78
2022/11/25 07:44:14;;;;;;;2.80;1.93;;;3.10;99.90;;;;;;6275112;22;21301;-78
2022/11/25 07:46:42;;;;;;;3.80;2.10;;;3.20;99.90;;;;;;6273348;22;20789;-77
2022/11/25 07:49:11;;;;;;;2.70;1.90;;;3.20;99.90;;;;;;6274251;22;20408;-76
2022/11/25 07:51:39;;;;;;;4.83;2.13;;;3.20;99.90;;;;;;6272303;22;21073;-77
2022/11/25 07:54:08;;;;;;;2.80;2.47;;;3.30;99.90;;;;;;6272363;22;20477;-76
2022/11/25 07:56:38;;;;;;;4.93;1.90;;;3.20;99.90;;;;;;6271478;22;20445;-77
2022/11/25 07:59:06;;;;;;;5.30;2.00;;;3.30;99.90;;;;;;6272570;22;20722;-76
2022/11/25 08:01:33;;;;;;;2.30;1.87;;;3.20;99.90;;;;;;6271996;22;20636;-76
2022/11/25 08:04:00;;;;;;;3.07;2.20;;;3.40;99.90;;;;;;6271666;22;20405;-75
2022/11/25 08:06:28;;;;;;;3.57;3.00;;;3.40;99.90;;;;;;6271175;22;20915;-79
2022/11/25 08:08:57;;;;;;;5.57;3.50;;;3.50;99.90;;;;;;6270940;22;20405;-75
2022/11/25 08:11:26;;;;;;;4.10;2.43;;;3.70;99.90;;;;;;6240448;23;20410;-76
2022/11/25 08:13:55;;;;;;;7.63;3.63;;;3.60;99.90;;;;;;6239596;23;20417;-76
2022/11/25 08:16:24;;;;;;;2.73;2.37;;;3.80;99.90;;;;;;6239999;23;20541;-77
2022/11/25 08:18:51;;;;;;;3.17;2.83;;;4.00;99.90;;;;;;6240158;23;20468;-82
2022/11/25 08:21:18;;;;;;;3.43;2.00;;;4.00;99.90;;;;;;6242137;23;21034;-91
2022/11/25 08:23:47;;;;;;;4.80;2.03;;;4.10;99.90;;;;;;6240683;23;20494;-85
2022/11/25 08:26:16;;;;;;;3.00;1.80;;;4.20;99.90;;;;;;6240609;23;20920;-88
2022/11/25 08:28:43;;;;;;;4.37;2.30;;;4.30;99.90;;;;;;6242054;23;20478;-88
2022/11/25 08:31:14;;;;;;;3.33;2.23;;;4.30;99.90;;;;;;6240843;23;20441;-88
2022/11/25 08:33:41;;;;;;;2.37;1.80;;;4.40;99.90;;;;;;6240635;23;20410;-89
2022/11/25 08:36:09;;;;;;;4.00;2.57;;;4.40;99.90;;;;;;6240880;23;20897;-89
2022/11/25 08:39:25;;;;;;;2.00;1.90;;;4.40;99.90;;;;;;6243855;23;20501;-88
2022/11/25 08:41:52;;;;;;;1.97;1.80;;;4.40;99.90;;;;;;6249814;23;20421;-88
2022/11/25 08:44:19;;;;;;;2.80;1.83;;;4.40;99.90;;;;;;6258890;22;21002;-91
2022/11/25 08:46:47;;;;;;;4.70;2.07;;;4.40;99.90;;;;;;6258248;23;20418;-88
2022/11/25 08:49:21;;;;;;;3.60;2.43;;;4.70;99.90;;;;;;6258777;23;20410;-90
2022/11/25 08:51:48;;;;;;;3.30;2.13;;;4.10;99.90;;;;;;6257839;23;20957;-88
2022/11/25 08:54:15;;;;;;;2.40;2.20;;;3.80;99.90;;;;;;6259319;23;20399;-88
2022/11/25 08:56:42;;;;;;;4.17;2.53;;;3.90;99.90;;;;;;6247946;23;20465;-88
2022/11/25 08:59:09;;;;;;;2.50;2.30;;;3.80;99.90;;;;;;6242766;23;20471;-89
2022/11/25 09:01:36;;;;;;;2.20;2.00;;;4.50;99.90;;;;;;6243640;23;20464;-90
2022/11/25 09:04:05;;;;;;;4.40;2.70;;;4.60;99.90;;;;;;6242357;23;20501;-89
2022/11/25 09:06:37;;;;;;;3.10;2.57;;;2.90;99.90;;;;;;6242270;23;20441;-90
2022/11/25 09:09:04;;;;;;;3.00;2.70;;;4.20;99.90;;;;;;6242179;23;20635;-90
2022/11/25 09:11:31;;;;;;;4.43;2.70;;;4.60;99.90;;;;;;6241911;23;20632;-91
2022/11/25 09:13:58;;;;;;;3.20;2.40;;;4.70;99.90;;;;;;6241300;23;20488;-90
2022/11/25 09:16:26;;;;;;;3.93;2.53;;;4.30;99.90;;;;;;6256332;22;20485;-86
2022/11/25 09:48:03;;;;;;;1.83;1.73;;;4.60;99.90;;;;;;6208093;22;20526;-86
2022/11/25 09:50:41;;;;;;;2.47;1.80;;;4.90;99.90;;;;;;6274561;22;20404;-80
2022/11/25 09:53:30;;;;;;;1.70;1.60;;;5.10;99.90;;;;;;6282866;22;20476;-82
2022/11/25 09:56:02;;;;;;;2.03;1.30;;;5.10;99.90;;;;;;6285940;22;20456;-80
2022/11/25 09:58:34;;;;;;;1.70;1.30;;;5.30;99.90;;;;;;6297841;22;20447;-81
2022/11/25 10:01:04;;;;;;;7.83;1.87;;;5.30;99.90;;;;;;6301521;22;20381;-80
2022/11/25 10:03:40;;;;;;;2.43;1.60;;;5.40;99.90;;;;;;6292632;22;20426;-80
2022/11/25 10:06:12;;;;;;;1.83;1.60;;;5.50;99.90;;;;;;6276116;22;20765;-83
2022/11/25 10:08:41;;;;;;;3.13;1.50;;;5.60;99.90;;;;;;6271423;22;20526;-84
2022/11/25 10:11:18;;;;;;;2.67;1.30;;;5.70;99.90;;;;;;6246777;22;20483;-82
2022/11/25 10:13:51;;;;;;;2.70;1.37;;;5.80;99.90;;;;;;6243944;23;20872;-83
2022/11/25 10:16:33;;;;;;;2.50;1.70;;;5.90;99.90;;;;;;6241231;23;20500;-82
2022/11/25 10:19:05;;;;;;;3.17;1.40;;;6.10;99.90;;;;;;6244493;23;20419;-84
2022/11/25 10:21:32;;;;;;;2.97;1.20;;;6.20;99.90;;;;;;6240512;23;20549;-85
2022/11/25 10:23:59;;;;;;;2.60;1.60;;;6.20;99.90;;;;;;6242440;23;20436;-81
2022/11/25 10:26:32;;;;;;;1.63;1.30;;;6.10;99.90;;;;;;6245409;23;20441;-84
2022/11/25 10:29:25;;;;;;;4.70;1.53;;;6.20;99.90;;;;;;6261118;23;20445;-85
2022/11/25 10:31:59;;;;;;;1.40;1.30;;;6.40;99.90;;;;;;6241546;23;20395;-84
2022/11/25 10:34:34;;;;;;;1.70;1.23;;;6.50;99.90;;;;;;6239673;23;20493;-85
2022/11/25 10:37:05;;;;;;;2.43;1.23;;;6.60;99.90;;;;;;6242990;23;20434;-90
2022/11/25 10:39:34;;;;;;;1.50;1.40;;;6.80;99.90;;;;;;6248631;23;20489;-93
2022/11/25 10:42:06;;;;;;;1.40;1.30;;;6.90;99.90;;;;;;6251316;23;20497;-92
2022/11/25 10:44:48;;;;;;;2.30;1.60;;;7.00;99.90;;;;;;6246261;23;20411;-88
2022/11/25 10:47:29;;;;;;;3.30;1.50;;;7.00;99.90;;;;;;6242124;23;20446;-84
2022/11/25 10:50:13;;;;;;;1.93;1.13;;;7.30;99.90;;;;;;6244749;23;20480;-90
2022/11/25 10:52:44;;;;;;;1.90;1.37;;;7.40;99.90;;;;;;6243574;23;20740;-87
2022/11/25 10:55:14;;;;;;;1.43;1.13;;;7.40;99.90;;;;;;6242547;23;20393;-88
2022/11/25 10:57:41;;;;;;;1.97;1.17;;;7.60;99.90;;;;;;6242753;23;20441;-89
2022/11/25 11:00:25;;;;;;;1.57;1.20;;;7.60;99.90;;;;;;6244998;23;21231;-92
2022/11/25 11:02:52;;;;;;;3.30;1.60;;;7.60;99.90;;;;;;6243450;23;20404;-87
2022/11/25 11:05:24;;;;;;;1.60;1.20;;;7.80;99.90;;;;;;6243019;23;20406;-90
2022/11/25 11:08:10;;;;;;;1.23;1.13;;;8.10;99.90;;;;;;6242862;23;20422;-88
2022/11/25 11:10:37;;;;;;;3.10;1.63;;;8.00;99.90;;;;;;6251061;22;21131;-91
2022/11/25 11:13:06;;;;;;;2.20;1.20;;;7.90;99.90;;;;;;6248554;23;20472;-89
2022/11/25 11:15:45;;;;;;;1.40;1.30;;;8.00;99.90;;;;;;6242395;23;20406;-85
2022/11/25 11:18:23;;;;;;;1.20;1.00;;;8.00;99.90;;;;;;6240820;23;20404;-83
2022/11/25 11:20:53;;;;;;;4.33;1.33;;;8.20;99.90;;;;;;6241463;23;20456;-87
2022/11/25 11:23:20;;;;;;;1.53;1.30;;;7.90;99.90;;;;;;6242988;23;20698;-90
2022/11/25 11:25:57;;;;;;;2.63;1.50;;;8.20;99.90;;;;;;6242459;23;20430;-86
2022/11/25 11:28:33;;;;;;;3.20;1.20;;;8.10;99.90;;;;;;6242277;23;20390;-87
2022/11/25 11:31:02;;;;;;;7.27;1.97;;;8.10;99.90;;;;;;6246995;23;20458;-92
2022/11/25 11:33:34;;;;;;;1.50;1.37;;;8.10;99.90;;;;;;6244113;23;20500;-90
2022/11/25 11:36:10;;;;;;;1.40;1.30;;;8.50;99.90;;;;;;6260736;23;20478;-88
2022/11/25 11:38:46;;;;;;;3.37;1.60;;;8.80;99.90;;;;;;6243409;23;20695;-87
2022/11/25 11:41:21;;;;;;;1.93;1.50;;;9.00;99.90;;;;;;6241189;23;20386;-86
2022/11/25 11:44:09;;;;;;;1.93;1.23;;;8.90;99.90;;;;;;6240446;23;20403;-86
2022/11/25 11:46:53;;;;;;;2.40;1.60;;;9.00;99.90;;;;;;6240159;23;20848;-82
2022/11/25 11:49:44;;;;;;;1.37;1.20;;;9.00;99.90;;;;;;6243665;23;20428;-89
2022/11/25 11:52:22;;;;;;;4.00;1.40;;;9.00;99.90;;;;;;6246367;23;20434;-91
2022/11/25 11:54:53;;;;;;;3.33;1.73;;;9.40;99.90;;;;;;6244105;23;20394;-92
2022/11/25 11:57:28;;;;;;;3.73;1.70;;;9.80;99.90;;;;;;6249967;23;20422;-90
2022/11/25 11:59:58;;;;;;;1.43;1.20;;;10.40;99.90;;;;;;6244299;23;20390;-85
2022/11/25 12:02:46;;;;;;;2.73;1.30;;;10.70;99.90;;;;;;6242664;23;20418;-87
2022/11/25 12:05:18;;;;;;;4.60;1.37;;;11.10;99.90;;;;;;6240028;23;20383;-81
2022/11/25 12:07:54;;;;;;;4.00;1.50;;;11.10;99.90;;;;;;6238739;23;20501;-81
2022/11/25 12:10:27;;;;;;;2.03;1.20;;;11.10;99.90;;;;;;6239990;22;20422;-81
2022/11/25 12:15:49;;;;;;;3.37;1.33;;;11.50;99.90;;;;;;6240315;23;20398;-80
2022/11/25 12:18:27;;;;;;;3.58;1.65;;;11.50;99.90;;;;;;6240435;23;20821;-83
2022/11/25 12:21:01;;;;;;;3.10;1.50;;;11.40;99.90;;;;;;6240153;23;20258;-80
2022/11/25 12:23:39;;;;;;;1.50;1.40;;;11.90;99.90;;;;;;6244272;23;20414;-78
2022/11/25 12:26:12;;;;;;;3.20;1.20;;;11.20;99.90;;;;;;6239268;23;20557;-81
2022/11/25 12:28:45;;;;;;;1.80;1.37;;;12.20;99.90;;;;;;6239629;23;20391;-83
2022/11/25 12:31:18;;;;;;;1.70;1.30;;;12.60;99.90;;;;;;6240349;23;20493;-80
2022/11/25 12:33:53;;;;;;;5.13;1.50;;;13.70;99.90;;;;;;6239523;23;20422;-80
2022/11/25 12:36:29;;;;;;;5.50;1.63;;;13.30;99.90;;;;;;6238818;23;20509;-81
2022/11/25 12:39:02;;;;;;;2.13;1.60;;;14.60;99.90;;;;;;6240151;23;20390;-79
2022/11/25 12:41:40;;;;;;;1.60;1.30;;;13.80;99.90;;;;;;6238805;23;20531;-81
2022/11/25 12:44:12;;;;;;;2.43;1.40;;;12.90;99.90;;;;;;6239211;23;20386;-80
2022/11/25 12:46:44;;;;;;;3.50;2.07;;;12.60;99.90;;;;;;6239325;23;20387;-83
2022/11/25 12:49:18;;;;;;;3.33;1.40;;;13.10;99.90;;;;;;6239141;23;20475;-82
2022/11/25 12:52:15;;;;;;;3.47;1.50;;;12.90;99.90;;;;;;6240715;23;20404;-83
2022/11/25 12:55:02;;;;;;;1.50;1.40;;;11.90;99.90;;;;;;6241936;23;20394;-85
2022/11/25 12:57:46;;;;;;;2.57;1.67;;;11.80;99.90;;;;;;6241036;23;20532;-85
2022/11/25 13:00:19;;;;;;;2.70;1.33;;;11.80;99.90;;;;;;6241014;23;20477;-87
2022/11/25 13:03:16;;;;;;;2.23;1.60;;;11.80;99.90;;;;;;6238990;23;20480;-87
2022/11/25 13:06:15;;;;;;;1.90;1.50;;;11.40;99.90;;;;;;6239499;23;20472;-86
2022/11/25 13:08:56;;;;;;;4.40;1.90;;;11.40;99.90;;;;;;6240057;23;20441;-87
2022/11/25 13:11:59;;;;;;;1.60;1.50;;;11.80;99.90;;;;;;6240426;23;20946;-87
2022/11/25 13:14:30;;;;;;;6.80;2.20;;;11.70;99.90;;;;;;6240752;23;20394;-86
2022/11/25 13:16:58;;;;;;;2.87;2.13;;;11.40;99.90;;;;;;6241621;23;20761;-85
2022/11/25 13:19:25;;;;;;;12.00;2.70;;;11.00;99.90;;;;;;6241589;23;20418;-84
2022/11/25 13:21:59;;;;;;;1.87;1.67;;;10.90;99.90;;;;;;6239869;23;20489;-83
2022/11/25 13:24:32;;;;;;;1.80;1.57;;;10.80;99.90;;;;;;6240021;23;20480;-84
2022/11/25 13:27:01;;;;;;;4.50;1.47;;;10.70;99.90;;;;;;6240647;23;20444;-83
2022/11/25 13:30:00;;;;;;;2.50;1.60;;;10.70;99.90;;;;;;6239953;23;20920;-84
2022/11/25 13:32:35;;;;;;;3.70;1.80;;;10.70;99.90;;;;;;6239083;23;20498;-81
2022/11/25 13:35:34;;;;;;;4.17;2.67;;;10.50;99.90;;;;;;6238792;23;20387;-84
2022/11/25 13:38:01;;;;;;;1.97;1.37;;;10.40;99.90;;;;;;6087690;23;20485;-85
2022/11/25 13:40:37;;;;;;;7.13;1.87;;;10.40;99.90;;;;;;6206695;23;20422;-86
2022/11/25 13:43:19;;;;;;;3.47;2.07;;;10.30;99.90;;;;;;6239677;23;20461;-84
2022/11/25 13:45:46;;;;;;;7.90;4.33;;;10.30;99.90;;;;;;6239062;23;20417;-85
2022/11/25 13:48:18;;;;;;;6.23;2.90;;;10.20;99.90;;;;;;6239004;23;20529;-83
2022/11/25 13:50:45;;;;;;;6.13;2.70;;;10.10;99.90;;;;;;6238684;23;20394;-83
2022/11/25 13:53:21;;;;;;;6.50;3.43;;;10.10;99.90;;;;;;6240555;23;20416;-86
2022/11/25 13:55:49;;;;;;;3.77;2.20;;;10.10;99.90;;;;;;6244720;23;20416;-91
2022/11/25 13:58:23;;;;;;;7.97;5.80;;;10.00;99.90;;;;;;6244486;23;20469;-89
2022/11/25 14:01:02;;;;;;;14.83;2.93;;;10.00;99.90;;;;;;6254787;23;20468;-84
2022/11/25 14:03:52;;;;;;;5.87;2.90;;;10.00;99.90;;;;;;6243663;23;20405;-91
2022/11/25 14:10:18;;;;;;;3.93;2.17;;;10.00;99.90;;;;;;6218586;22;20430;-77
2022/11/25 14:13:29;;;;;;;4.40;2.50;;;9.90;99.90;;;;;;6231739;23;21368;-76
2022/11/25 14:16:16;;;;;;;5.33;2.70;;;9.90;99.90;;;;;;6199705;23;20414;-80
2022/11/25 14:19:03;;;;;;;3.77;2.53;;;10.00;99.90;;;;;;6233667;23;20786;-74
2022/11/25 14:22:01;;;;;;;5.37;3.10;;;10.00;99.90;;;;;;6235150;23;20529;-75
2022/11/25 14:24:34;;;;;;;3.97;2.30;;;10.10;99.90;;;;;;6236790;23;20517;-75
2022/11/25 14:27:01;;;;;;;6.27;2.83;;;10.00;99.90;;;;;;6236734;23;20497;-77
2022/11/25 14:29:35;;;;;;;3.60;2.60;;;10.00;99.90;;;;;;6236171;23;20421;-76
2022/11/25 14:32:08;;;;;;;4.20;2.10;;;9.80;99.90;;;;;;6235981;23;20472;-77
2022/11/25 14:34:41;;;;;;;6.33;2.00;;;9.70;99.90;;;;;;6236186;23;20497;-78
2022/11/25 14:37:20;;;;;;;6.10;2.43;;;9.60;99.90;;;;;;6230832;23;20446;-76
2022/11/25 14:39:52;;;;;;;7.23;3.27;;;9.80;99.90;;;;;;6235642;23;20410;-76
2022/11/25 14:42:22;;;;;;;3.30;3.00;;;9.40;99.90;;;;;;6240622;23;20463;-76
2022/11/25 14:44:50;;;;;;;2.73;1.70;;;9.30;99.90;;;;;;6237760;23;20406;-78
2022/11/25 14:47:38;;;;;;;2.60;1.80;;;9.00;99.90;;;;;;6238197;23;20774;-77
2022/11/25 14:50:12;;;;;;;6.17;2.30;;;9.00;99.90;;;;;;6237175;23;20406;-76
2022/11/25 14:52:42;;;;;;;2.77;2.07;;;8.70;99.90;;;;;;6236849;23;20443;-76
2022/11/25 14:55:11;;;;;;;1.80;1.70;;;8.80;99.90;;;;;;6239077;23;20405;-77
2022/11/25 14:57:42;;;;;;;4.93;2.17;;;8.50;99.90;;;;;;6237985;23;20517;-77
2022/11/25 15:00:14;;;;;;;4.60;2.03;;;8.30;99.90;;;;;;6237243;23;21052;-76
2022/11/25 15:02:53;;;;;;;2.30;1.63;;;8.20;99.90;;;;;;6238038;23;20888;-76
2022/11/25 15:05:24;;;;;;;2.97;2.13;;;8.30;99.90;;;;;;6237353;23;20716;-77